Terminal Aerodrome Forecast
Issued by NWS

Home | Current Version | Previous Version | Text Only | Print | Product List | Glossary On
Versions: 1 2 3 4 5 6 7 8 9 10 11 12 13 14 15
000
FTUS45 KTFX 260700 AAA
TAFCTB
TAF AMD
KCTB 260700Z 2607/2706 01011KT P6SM VCSH SCT010 OVC020
      TEMPO 2607/2611 35015G25KT BKN012
     FM261700 14006KT P6SM SCT050 BKN120
     FM270200 16008KT P6SM SCT150=

USA.gov is the U.S. government's official web portal to all federal, state and local government web resources and services.